createdAt,value
2024-03-12T00:01:50.020Z,23.50
2024-03-12T00:04:18.309Z,21.00
2024-03-12T00:06:46.466Z,23.20
2024-03-12T00:09:14.460Z,23.00
2024-03-12T00:11:43.627Z,21.60
2024-03-12T00:14:11.468Z,23.20
2024-03-12T00:16:41.947Z,22.50
2024-03-12T00:19:10.830Z,23.10
2024-03-12T00:21:38.901Z,22.90
2024-03-12T00:24:06.779Z,25.60
2024-03-12T00:26:34.569Z,24.90
2024-03-12T00:29:02.842Z,21.80
2024-03-12T00:31:30.676Z,23.50
2024-03-12T00:34:01.819Z,25.10
2024-03-12T00:36:30.556Z,22.80
2024-03-12T00:38:58.891Z,24.50
2024-03-12T00:41:26.653Z,22.80
2024-03-12T00:43:55.387Z,22.90
2024-03-12T00:46:23.637Z,23.80
2024-03-12T00:48:51.969Z,24.50
2024-03-12T00:51:19.778Z,23.60
2024-03-12T00:53:50.454Z,22.50
2024-03-12T00:56:18.288Z,23.40
2024-03-12T00:58:46.036Z,22.10
2024-03-12T01:01:16.629Z,24.10
2024-03-12T01:03:44.783Z,23.50
2024-03-12T01:06:12.676Z,22.70
2024-03-12T01:08:40.927Z,22.00
2024-03-12T01:11:08.765Z,22.80
2024-03-12T01:13:36.955Z,22.90
2024-03-12T01:16:05.028Z,23.60
2024-03-12T01:18:33.059Z,22.90
2024-03-12T01:21:01.119Z,24.50
2024-03-12T01:23:28.947Z,23.10
2024-03-12T01:25:56.759Z,23.20
2024-03-12T01:28:25.167Z,24.70
2024-03-12T01:30:53.126Z,22.80
2024-03-12T01:33:20.934Z,23.70
2024-03-12T01:35:49.036Z,22.70
2024-03-12T01:38:16.809Z,24.50
2024-03-12T01:40:44.622Z,25.20
2024-03-12T01:43:14.296Z,24.60
2024-03-12T01:45:44.018Z,22.80
2024-03-12T01:48:12.976Z,22.20
2024-03-12T01:50:41.665Z,24.20
2024-03-12T01:53:12.716Z,24.00
2024-03-12T01:55:45.095Z,23.10
2024-03-12T01:58:15.995Z,23.10
2024-03-12T02:00:45.902Z,24.90
2024-03-12T02:03:14.064Z,20.50
2024-03-12T02:05:43.064Z,22.60
2024-03-12T02:08:12.012Z,23.90
2024-03-12T02:10:39.798Z,23.10
2024-03-12T02:13:07.879Z,24.00
2024-03-12T02:15:37.913Z,21.70
2024-03-12T02:18:09.296Z,22.30
2024-03-12T02:20:39.512Z,22.20
2024-03-12T02:23:07.350Z,23.20
2024-03-12T02:25:35.103Z,22.50
2024-03-12T02:28:04.034Z,23.20
2024-03-12T02:30:32.178Z,21.60
2024-03-12T02:33:01.080Z,23.60
2024-03-12T02:35:29.214Z,21.60
2024-03-12T02:37:56.990Z,22.90
2024-03-12T02:40:24.910Z,23.00
2024-03-12T02:42:52.751Z,24.60
2024-03-12T02:45:22.401Z,24.50
2024-03-12T02:47:50.607Z,23.80
2024-03-12T02:50:19.632Z,24.20
2024-03-12T02:52:47.494Z,24.90
2024-03-12T02:55:15.676Z,24.50
2024-03-12T02:57:44.641Z,23.30
2024-03-12T03:00:14.741Z,22.90
2024-03-12T03:02:45.164Z,24.20
2024-03-12T03:05:14.631Z,22.30
2024-03-12T03:07:43.800Z,23.40
2024-03-12T03:10:13.509Z,24.90
2024-03-12T03:12:46.319Z,23.40
2024-03-12T03:15:15.031Z,25.10
2024-03-12T03:17:44.299Z,23.80
2024-03-12T03:20:13.537Z,25.50
2024-03-12T03:22:42.580Z,27.60
2024-03-12T03:25:13.298Z,25.20
2024-03-12T03:27:41.304Z,25.00
2024-03-12T03:30:11.570Z,27.30
2024-03-12T03:32:40.685Z,27.30
2024-03-12T03:35:08.832Z,29.30
2024-03-12T03:37:36.926Z,27.70
2024-03-12T03:40:05.987Z,25.50
2024-03-12T03:42:34.000Z,26.90
2024-03-12T03:45:01.744Z,26.50
2024-03-12T03:47:35.905Z,26.50
2024-03-12T03:50:05.214Z,26.70
2024-03-12T03:52:33.136Z,26.30
2024-03-12T03:55:01.016Z,25.40
2024-03-12T03:57:31.892Z,26.40
2024-03-12T03:59:59.706Z,27.20
2024-03-12T04:02:28.274Z,27.00
2024-03-12T04:04:57.071Z,30.00
2024-03-12T04:07:26.596Z,27.80
2024-03-12T04:09:56.141Z,31.60
2024-03-12T04:12:24.156Z,27.90
2024-03-12T04:14:52.152Z,28.10
2024-03-12T04:17:20.992Z,28.10
2024-03-12T04:19:49.187Z,28.10
2024-03-12T04:22:20.665Z,28.10
2024-03-12T04:24:48.458Z,29.00
2024-03-12T04:27:16.849Z,29.10
2024-03-12T04:29:44.807Z,29.00
2024-03-12T04:32:12.644Z,29.90
2024-03-12T04:34:41.187Z,29.90
2024-03-12T04:37:09.132Z,31.20
2024-03-12T04:39:39.689Z,27.80
2024-03-12T04:42:08.088Z,29.60
2024-03-12T04:44:36.235Z,29.00
2024-03-12T04:47:05.250Z,28.70
2024-03-12T04:49:33.069Z,29.00
2024-03-12T04:52:01.516Z,30.50
2024-03-12T04:54:29.441Z,28.00
2024-03-12T04:56:58.449Z,30.90
2024-03-12T04:59:26.359Z,28.80
2024-03-12T05:01:54.581Z,30.70
2024-03-12T05:04:23.986Z,27.20
2024-03-12T05:06:52.140Z,28.90
2024-03-12T05:09:20.392Z,29.00
2024-03-12T05:11:49.127Z,29.60
2024-03-12T05:14:17.011Z,29.70
2024-03-12T05:16:47.772Z,30.40
2024-03-12T05:19:15.586Z,29.90
2024-03-12T05:21:48.605Z,32.10
2024-03-12T05:24:19.288Z,30.90
2024-03-12T05:26:50.597Z,29.20
2024-03-12T05:29:27.356Z,30.60
2024-03-12T05:31:55.197Z,30.00
2024-03-12T05:34:30.464Z,30.40
2024-03-12T05:37:05.666Z,31.70
2024-03-12T05:39:59.663Z,31.30
2024-03-12T05:42:46.985Z,31.10
2024-03-12T05:45:33.422Z,30.80
2024-03-12T05:48:13.673Z,33.40
2024-03-12T05:50:43.733Z,31.70
2024-03-12T05:53:12.107Z,32.00
2024-03-12T05:55:42.908Z,33.40
2024-03-12T05:58:13.789Z,34.40
2024-03-12T06:00:41.654Z,33.80
2024-03-12T06:03:09.398Z,36.20
2024-03-12T06:05:37.199Z,32.50
2024-03-12T06:08:05.831Z,34.00
2024-03-12T06:10:33.613Z,36.40
2024-03-12T06:13:01.591Z,35.20
2024-03-12T06:15:31.052Z,34.80
2024-03-12T06:17:58.921Z,34.60
2024-03-12T06:20:28.584Z,36.30
2024-03-12T06:22:56.813Z,33.50
2024-03-12T06:25:24.619Z,34.90
2024-03-12T06:27:53.526Z,34.70
2024-03-12T06:30:21.466Z,34.90
2024-03-12T06:32:49.377Z,36.10
2024-03-12T06:35:18.417Z,35.20
2024-03-12T06:37:46.221Z,33.80
2024-03-12T06:40:18.532Z,34.50
2024-03-12T06:45:14.524Z,31.60
2024-03-12T06:47:43.059Z,36.10
2024-03-12T06:50:11.529Z,34.50
2024-03-12T06:52:39.406Z,35.30
2024-03-12T06:55:17.005Z,36.00
2024-03-12T06:57:49.417Z,35.50
2024-03-12T07:00:24.435Z,35.00
2024-03-12T07:02:52.593Z,33.80
2024-03-12T07:05:21.611Z,35.00
2024-03-12T07:07:49.463Z,32.40
2024-03-12T07:10:18.555Z,33.60
2024-03-12T07:12:47.372Z,33.30
2024-03-12T07:15:17.710Z,32.70
2024-03-12T07:17:45.636Z,32.80
2024-03-12T07:20:16.671Z,34.90
2024-03-12T07:22:46.737Z,32.30
2024-03-12T07:25:15.149Z,36.10
2024-03-12T07:27:43.386Z,33.00
2024-03-12T07:30:12.032Z,31.40
2024-03-12T07:32:40.441Z,31.70
2024-03-12T07:35:11.047Z,31.30
2024-03-12T07:37:40.738Z,31.00
2024-03-12T07:40:10.931Z,28.80
2024-03-12T07:42:42.952Z,29.70
2024-03-12T07:45:11.814Z,28.60
2024-03-12T07:47:42.312Z,27.80
2024-03-12T07:50:12.786Z,30.20
2024-03-12T07:52:40.738Z,28.50
2024-03-12T07:55:11.266Z,30.00
2024-03-12T07:57:39.591Z,29.30
2024-03-12T08:00:16.334Z,29.50
2024-03-12T08:02:44.824Z,27.80
2024-03-12T08:05:13.655Z,26.50
2024-03-12T08:07:41.717Z,29.40
2024-03-12T08:10:11.354Z,26.80
2024-03-12T08:12:41.442Z,27.80
2024-03-12T08:15:14.592Z,27.50
2024-03-12T08:17:44.630Z,25.80
2024-03-12T08:20:15.077Z,25.30
2024-03-12T08:22:43.052Z,26.50
2024-03-12T08:25:12.481Z,26.70
2024-03-12T08:27:43.810Z,28.30
2024-03-12T08:30:13.456Z,27.40
2024-03-12T08:32:44.607Z,26.10
2024-03-12T08:35:12.511Z,24.30
2024-03-12T08:37:40.446Z,24.90
2024-03-12T08:40:09.430Z,26.30
2024-03-12T08:42:44.934Z,24.90
2024-03-12T08:45:22.501Z,26.50
2024-03-12T08:47:52.541Z,25.50
2024-03-12T08:50:20.536Z,25.10
2024-03-12T08:52:48.382Z,26.30
2024-03-12T08:55:18.156Z,26.00
2024-03-12T08:57:46.161Z,26.90
2024-03-12T09:00:14.557Z,26.20
2024-03-12T09:02:43.057Z,24.60
2024-03-12T09:05:11.172Z,23.50
2024-03-12T09:07:39.437Z,24.00
2024-03-12T09:10:13.065Z,24.40
2024-03-12T09:12:44.015Z,25.70
2024-03-12T09:15:12.110Z,24.00
2024-03-12T09:17:40.213Z,23.00
2024-03-12T09:20:11.722Z,24.40
2024-03-12T09:22:41.052Z,22.90
2024-03-12T09:25:09.934Z,23.40
2024-03-12T09:27:38.873Z,24.70
2024-03-12T09:30:08.827Z,24.10
2024-03-12T09:32:36.686Z,23.40
2024-03-12T09:35:05.107Z,23.00
2024-03-12T09:37:37.386Z,23.30
2024-03-12T09:40:09.240Z,23.60
2024-03-12T09:42:38.401Z,24.50
2024-03-12T09:45:09.829Z,25.20
2024-03-12T09:47:38.304Z,25.00
2024-03-12T09:50:12.724Z,23.10
2024-03-12T09:52:41.387Z,25.50
2024-03-12T09:55:12.260Z,23.50
2024-03-12T09:57:45.956Z,24.10
2024-03-12T10:00:20.789Z,26.70
2024-03-12T10:02:51.537Z,25.20
2024-03-12T10:05:24.491Z,23.40
2024-03-12T10:08:08.919Z,23.90
2024-03-12T10:10:39.413Z,23.50
2024-03-12T10:13:16.025Z,23.70
2024-03-12T10:16:00.725Z,24.10
2024-03-12T10:21:02.697Z,21.30
2024-03-12T10:23:34.709Z,23.60
2024-03-12T10:26:20.587Z,23.90
2024-03-12T10:28:52.249Z,26.20
2024-03-12T10:31:21.476Z,24.60
2024-03-12T10:33:50.631Z,26.90
2024-03-12T10:36:33.558Z,24.60
2024-03-12T10:39:13.520Z,25.90
2024-03-12T10:41:44.461Z,24.70
2024-03-12T10:44:12.636Z,23.80
2024-03-12T10:46:41.836Z,24.80
2024-03-12T10:49:13.918Z,27.60
2024-03-12T10:54:15.665Z,24.30
2024-03-12T10:56:47.020Z,24.30
2024-03-12T10:59:17.634Z,25.20
2024-03-12T11:01:46.255Z,24.30
2024-03-12T11:04:14.913Z,28.00
2024-03-12T11:06:42.797Z,25.60
2024-03-12T11:09:19.267Z,27.70
2024-03-12T11:11:48.380Z,27.10
2024-03-12T11:14:17.018Z,27.00
2024-03-12T11:16:44.860Z,28.10
2024-03-12T11:19:24.596Z,27.20
2024-03-12T11:21:53.918Z,27.30
2024-03-12T11:24:44.372Z,26.20
2024-03-12T11:30:15.882Z,22.80
2024-03-12T11:32:52.320Z,27.60
2024-03-12T11:35:22.943Z,30.00
2024-03-12T11:38:00.175Z,28.60
2024-03-12T11:40:32.128Z,28.30
2024-03-12T11:43:00.467Z,28.90
2024-03-12T11:45:37.618Z,33.00
2024-03-12T11:48:08.951Z,29.80
2024-03-12T11:50:40.817Z,28.90
2024-03-12T11:53:23.740Z,29.90
2024-03-12T11:56:06.370Z,31.30
2024-03-12T11:58:42.400Z,28.60
2024-03-12T12:01:12.136Z,31.30
2024-03-12T12:03:40.664Z,34.40
2024-03-12T12:06:11.606Z,31.90
2024-03-12T12:08:46.122Z,30.90
2024-03-12T12:11:21.276Z,33.40
2024-03-12T12:13:49.533Z,33.10
2024-03-12T12:16:18.831Z,31.50
2024-03-12T12:18:48.252Z,33.30
2024-03-12T12:21:20.177Z,31.60
2024-03-12T12:23:49.119Z,30.90
2024-03-12T12:26:22.381Z,32.20
2024-03-12T12:28:53.895Z,31.50
2024-03-12T12:31:23.563Z,35.40
2024-03-12T12:33:53.062Z,30.60
2024-03-12T12:36:26.840Z,31.20
2024-03-12T12:39:02.456Z,29.10
2024-03-12T12:41:44.197Z,30.90
2024-03-12T12:44:18.344Z,30.50
2024-03-12T12:46:49.729Z,31.80
2024-03-12T12:49:18.918Z,31.10
2024-03-12T12:51:48.088Z,32.20
2024-03-12T12:54:17.254Z,30.80
2024-03-12T12:56:48.038Z,34.10
2024-03-12T12:59:21.761Z,32.90
2024-03-12T13:01:50.788Z,29.80
2024-03-12T13:04:28.433Z,32.20
2024-03-12T13:06:58.458Z,29.20
2024-03-12T13:09:33.690Z,30.50
2024-03-12T13:12:09.202Z,29.20
2024-03-12T13:14:38.512Z,29.70
2024-03-12T13:17:10.407Z,28.90
2024-03-12T13:19:38.543Z,30.10
2024-03-12T13:22:13.471Z,32.00
2024-03-12T13:24:45.539Z,28.50
2024-03-12T13:27:15.305Z,31.00
2024-03-12T13:29:46.971Z,28.10
2024-03-12T13:32:15.322Z,27.80
2024-03-12T13:34:43.423Z,29.90
2024-03-12T13:37:14.007Z,27.80
2024-03-12T13:39:42.079Z,27.30
2024-03-12T13:42:11.591Z,27.30
2024-03-12T13:44:39.483Z,27.80
2024-03-12T13:47:07.436Z,24.80
2024-03-12T13:49:35.547Z,26.20
2024-03-12T13:52:03.626Z,24.20
2024-03-12T13:54:31.906Z,27.90
2024-03-12T13:56:59.884Z,27.20
2024-03-12T13:59:29.023Z,27.30
2024-03-12T14:01:58.169Z,27.70
2024-03-12T14:04:32.190Z,26.70
2024-03-12T14:07:00.789Z,26.20
2024-03-12T14:09:28.890Z,26.00
2024-03-12T14:11:56.746Z,26.80
2024-03-12T14:14:24.790Z,27.20
2024-03-12T14:16:53.052Z,25.40
2024-03-12T14:19:21.975Z,26.10
2024-03-12T14:21:49.924Z,25.20
2024-03-12T14:24:17.990Z,23.80
2024-03-12T14:26:45.765Z,24.50
2024-03-12T14:29:13.522Z,22.90
2024-03-12T14:31:42.818Z,22.20
2024-03-12T14:34:11.036Z,24.40
2024-03-12T14:36:39.145Z,23.10
2024-03-12T14:39:09.158Z,24.00
2024-03-12T14:41:37.173Z,23.70
2024-03-12T14:44:06.061Z,22.10
2024-03-12T14:46:34.614Z,22.60
2024-03-12T14:49:02.645Z,23.90
2024-03-12T14:51:30.895Z,23.70
2024-03-12T14:53:58.718Z,25.00
2024-03-12T14:56:26.993Z,23.20
2024-03-12T14:58:55.253Z,22.20
2024-03-12T15:01:24.306Z,23.00
2024-03-12T15:03:52.347Z,23.30
2024-03-12T15:06:20.207Z,23.30
2024-03-12T15:08:48.195Z,23.10
2024-03-12T15:11:16.086Z,24.30
2024-03-12T15:13:44.546Z,21.10
2024-03-12T15:16:12.494Z,20.00
2024-03-12T15:18:40.918Z,23.30
2024-03-12T15:21:09.067Z,21.10
2024-03-12T15:23:36.937Z,19.50
2024-03-12T15:26:06.553Z,20.50
2024-03-12T15:28:34.858Z,21.10
2024-03-12T15:31:05.191Z,20.40
2024-03-12T15:33:34.446Z,21.60
2024-03-12T15:36:02.384Z,24.30
2024-03-12T15:38:33.214Z,24.20
2024-03-12T15:41:00.953Z,24.60
2024-03-12T15:43:29.032Z,24.00
2024-03-12T15:45:59.667Z,28.60
2024-03-12T15:48:27.523Z,26.20
2024-03-12T15:50:55.927Z,26.40
2024-03-12T15:53:24.162Z,25.50
2024-03-12T15:55:52.229Z,24.90
2024-03-12T15:58:20.200Z,23.90
2024-03-12T16:00:48.132Z,25.50
2024-03-12T16:03:16.268Z,25.90
2024-03-12T16:05:44.267Z,25.50
2024-03-12T16:08:12.476Z,24.90
2024-03-12T16:10:40.197Z,25.00
2024-03-12T16:13:09.423Z,28.60
2024-03-12T16:15:38.585Z,25.30
2024-03-12T16:18:07.022Z,26.50
2024-03-12T16:20:35.035Z,29.90
2024-03-12T16:23:03.764Z,29.50
2024-03-12T16:25:31.738Z,27.50
2024-03-12T16:27:59.673Z,29.50
2024-03-12T16:30:27.733Z,30.20
2024-03-12T16:32:56.102Z,28.60
2024-03-12T16:35:24.851Z,27.80
2024-03-12T16:37:52.717Z,27.40
2024-03-12T16:40:21.211Z,27.90
2024-03-12T16:42:49.830Z,29.00
2024-03-12T16:45:17.768Z,29.60
2024-03-12T16:47:45.666Z,28.10
2024-03-12T16:50:16.395Z,27.90
2024-03-12T16:52:44.706Z,26.90
2024-03-12T16:55:13.493Z,26.60
2024-03-12T16:57:42.096Z,28.30
2024-03-12T17:00:15.604Z,28.30
2024-03-12T17:02:44.201Z,28.30
2024-03-12T17:05:23.257Z,28.20
2024-03-12T17:07:54.278Z,28.20
2024-03-12T17:10:25.312Z,27.70
2024-03-12T17:12:53.735Z,29.20
2024-03-12T17:15:22.570Z,27.50
2024-03-12T17:17:50.918Z,29.00
2024-03-12T17:20:18.869Z,26.80
2024-03-12T17:22:48.071Z,29.00
2024-03-12T17:25:18.585Z,28.20
2024-03-12T17:27:49.038Z,31.30
2024-03-12T17:30:17.062Z,28.10
2024-03-12T17:32:47.411Z,33.60
2024-03-12T17:35:16.581Z,28.80
2024-03-12T17:37:45.436Z,28.60
2024-03-12T17:40:17.070Z,30.70
2024-03-12T17:42:46.655Z,27.70
2024-03-12T17:45:16.864Z,29.30
2024-03-12T17:47:52.600Z,32.80
2024-03-12T17:50:25.809Z,31.30
2024-03-12T17:52:55.450Z,34.60
2024-03-12T17:55:23.657Z,39.30
2024-03-12T17:57:52.727Z,41.00
2024-03-12T18:00:22.396Z,40.30
2024-03-12T18:02:51.140Z,41.80
2024-03-12T18:05:23.198Z,38.70
2024-03-12T18:07:54.545Z,42.10
2024-03-12T18:10:26.697Z,40.90
2024-03-12T18:12:55.028Z,40.70
2024-03-12T18:15:25.200Z,40.70
2024-03-12T18:17:54.353Z,43.10
2024-03-12T18:20:31.627Z,40.60
2024-03-12T18:22:59.989Z,37.20
2024-03-12T18:25:28.015Z,38.80
2024-03-12T18:27:59.223Z,35.50
2024-03-12T18:30:28.185Z,36.00
2024-03-12T18:32:56.246Z,35.30
2024-03-12T18:35:25.272Z,35.50
2024-03-12T18:37:53.230Z,33.40
2024-03-12T18:40:23.387Z,33.60
2024-03-12T18:42:52.338Z,34.50
2024-03-12T18:45:23.548Z,32.70
2024-03-12T18:47:52.270Z,35.20
2024-03-12T18:50:22.068Z,33.50
2024-03-12T18:52:50.426Z,34.40
2024-03-12T18:55:19.471Z,32.10
2024-03-12T18:57:47.976Z,34.40
2024-03-12T19:00:19.861Z,32.80
2024-03-12T19:02:49.454Z,31.10
2024-03-12T19:05:23.283Z,31.30
2024-03-12T19:07:52.435Z,31.70
2024-03-12T19:10:21.127Z,32.10
2024-03-12T19:12:50.636Z,31.80
2024-03-12T19:15:22.758Z,34.20
2024-03-12T19:17:52.055Z,37.30
2024-03-12T19:20:21.169Z,32.80
2024-03-12T19:22:51.098Z,32.70
2024-03-12T19:25:20.859Z,31.90
2024-03-12T19:27:50.337Z,35.20
2024-03-12T19:30:21.707Z,33.40
2024-03-12T19:32:53.498Z,29.80
2024-03-12T19:35:22.635Z,31.10
2024-03-12T19:37:51.041Z,33.00
2024-03-12T19:40:22.904Z,36.70
2024-03-12T19:42:52.464Z,33.00
2024-03-12T19:45:26.979Z,33.00
2024-03-12T19:47:57.934Z,35.30
2024-03-12T19:50:26.458Z,33.80
2024-03-12T19:52:56.515Z,33.30
2024-03-12T19:55:26.572Z,32.90
2024-03-12T19:58:00.777Z,35.10
2024-03-12T20:00:31.981Z,33.80
2024-03-12T20:03:01.810Z,32.60
2024-03-12T20:05:31.584Z,34.00
2024-03-12T20:08:05.561Z,32.20
2024-03-12T20:10:34.235Z,33.90
2024-03-12T20:13:05.849Z,32.80
2024-03-12T20:15:34.251Z,31.30
2024-03-12T20:18:02.749Z,32.50
2024-03-12T20:20:31.572Z,31.00
2024-03-12T20:22:59.987Z,35.20
2024-03-12T20:25:28.083Z,35.20
2024-03-12T20:27:56.764Z,31.00
2024-03-12T20:30:29.280Z,33.10
2024-03-12T20:33:00.034Z,32.00
2024-03-12T20:35:31.611Z,34.60
2024-03-12T20:37:59.798Z,30.80
2024-03-12T20:40:29.135Z,32.40
2024-03-12T20:43:00.450Z,32.80
2024-03-12T20:45:30.339Z,32.40
2024-03-12T20:48:01.843Z,32.90
2024-03-12T20:50:30.233Z,30.40
2024-03-12T20:52:58.813Z,32.60
2024-03-12T20:55:26.747Z,29.70
2024-03-12T20:57:54.661Z,31.20
2024-03-12T21:00:29.804Z,29.80
2024-03-12T21:02:58.435Z,33.10
2024-03-12T21:05:32.104Z,31.80
2024-03-12T21:08:00.339Z,31.70
2024-03-12T21:10:28.415Z,31.10
2024-03-12T21:12:57.162Z,32.80
2024-03-12T21:15:26.148Z,37.10
2024-03-12T21:17:54.349Z,34.80
2024-03-12T21:20:34.591Z,38.80
2024-03-12T21:23:07.245Z,39.10
2024-03-12T21:25:35.434Z,40.40
2024-03-12T21:28:04.296Z,39.00
2024-03-12T21:30:32.815Z,39.00
2024-03-12T21:33:01.072Z,36.90
2024-03-12T21:35:30.167Z,36.30
2024-03-12T21:37:58.807Z,35.20
2024-03-12T21:40:28.162Z,31.70
2024-03-12T21:42:56.267Z,36.20
2024-03-12T21:45:24.916Z,35.60
2024-03-12T21:47:54.552Z,32.80
2024-03-12T21:50:23.053Z,32.60
2024-03-12T21:52:51.238Z,28.20
2024-03-12T21:55:19.864Z,28.20
2024-03-12T21:57:48.560Z,28.70
2024-03-12T22:00:20.966Z,26.70
2024-03-12T22:02:50.599Z,25.80
2024-03-12T22:05:21.440Z,26.70
2024-03-12T22:07:52.425Z,24.60
2024-03-12T22:10:20.670Z,21.90
2024-03-12T22:12:49.827Z,24.20
2024-03-12T22:15:18.160Z,24.10
2024-03-12T22:17:47.262Z,18.60
2024-03-12T22:20:17.618Z,19.20
2024-03-12T22:22:46.585Z,17.90
2024-03-12T22:25:16.221Z,18.40
2024-03-12T22:27:45.415Z,17.90
2024-03-12T22:30:14.495Z,16.80
2024-03-12T22:32:46.543Z,17.50
2024-03-12T22:35:15.163Z,17.70
2024-03-12T22:37:44.922Z,18.00
2024-03-12T22:40:14.048Z,18.90
2024-03-12T22:42:42.732Z,19.30
2024-03-12T22:45:13.313Z,18.90
2024-03-12T22:47:42.974Z,17.80
2024-03-12T22:50:11.819Z,17.40
2024-03-12T22:52:42.410Z,17.30
2024-03-12T22:55:13.419Z,18.80
2024-03-12T22:57:43.297Z,21.10
2024-03-12T23:00:30.669Z,19.10
2024-03-12T23:03:02.322Z,19.10
2024-03-12T23:08:07.324Z,16.00
2024-03-12T23:10:37.885Z,16.80
2024-03-12T23:13:08.307Z,17.20
2024-03-12T23:15:36.633Z,16.30
2024-03-12T23:18:06.556Z,16.70
2024-03-12T23:20:36.164Z,15.90
2024-03-12T23:23:06.495Z,15.00
2024-03-12T23:25:38.172Z,14.40
2024-03-12T23:28:07.145Z,15.30
2024-03-12T23:30:36.371Z,14.40
2024-03-12T23:33:09.703Z,14.70
2024-03-12T23:35:39.637Z,14.80
2024-03-12T23:38:08.971Z,16.40
2024-03-12T23:40:37.028Z,15.20
2024-03-12T23:43:05.937Z,16.60
2024-03-12T23:45:34.663Z,13.20
2024-03-12T23:48:04.164Z,13.70
2024-03-12T23:50:33.918Z,14.50
2024-03-12T23:53:03.478Z,15.50
2024-03-12T23:55:32.843Z,14.00
2024-03-12T23:58:02.045Z,14.30
